sensor_id;sensor_type;location;lat;lon;timestamp;pressure;altitude;pressure_sealevel;temperature
27986;BMP280;15453;53.692;10.168;2022-09-30T00:00:16;100313.13;;;13.71
27986;BMP280;15453;53.692;10.168;2022-09-30T00:02:41;100319.19;;;13.68
27986;BMP280;15453;53.692;10.168;2022-09-30T00:05:07;100311.19;;;13.66
27986;BMP280;15453;53.692;10.168;2022-09-30T00:07:32;100311.19;;;13.66
27986;BMP280;15453;53.692;10.168;2022-09-30T00:09:57;100323.59;;;13.64
27986;BMP280;15453;53.692;10.168;2022-09-30T00:12:23;100323.06;;;13.62
27986;BMP280;15453;53.692;10.168;2022-09-30T00:14:48;100323.06;;;13.62
27986;BMP280;15453;53.692;10.168;2022-09-30T00:17:13;100326.91;;;13.61
27986;BMP280;15453;53.692;10.168;2022-09-30T00:19:38;100320.03;;;13.58
27986;BMP280;15453;53.692;10.168;2022-09-30T00:22:04;100317.56;;;13.57
27986;BMP280;15453;53.692;10.168;2022-09-30T00:24:29;100315.91;;;13.56
27986;BMP280;15453;53.692;10.168;2022-09-30T00:26:55;100326.38;;;13.54
27986;BMP280;15453;53.692;10.168;2022-09-30T00:29:20;100326.38;;;13.54
27986;BMP280;15453;53.692;10.168;2022-09-30T00:31:46;100318.66;;;13.51
27986;BMP280;15453;53.692;10.168;2022-09-30T00:34:11;100321.69;;;13.49
27986;BMP280;15453;53.692;10.168;2022-09-30T00:36:48;100321.97;;;13.48
27986;BMP280;15453;53.692;10.168;2022-09-30T00:39:17;100325.56;;;13.43
27986;BMP280;15453;53.692;10.168;2022-09-30T00:41:45;100329.16;;;13.44
27986;BMP280;15453;53.692;10.168;2022-09-30T00:47:29;100329.16;;;13.39
27986;BMP280;15453;53.692;10.168;2022-09-30T00:50:17;100338.22;;;13.39
27986;BMP280;15453;53.692;10.168;2022-09-30T00:52:47;100338.22;;;13.39
27986;BMP280;15453;53.692;10.168;2022-09-30T00:55:22;100337.41;;;13.39
27986;BMP280;15453;53.692;10.168;2022-09-30T00:57:48;100337.41;;;13.34
27986;BMP280;15453;53.692;10.168;2022-09-30T01:00:14;100343.44;;;13.46
27986;BMP280;15453;53.692;10.168;2022-09-30T01:02:39;100345.34;;;13.45
27986;BMP280;15453;53.692;10.168;2022-09-30T01:05:04;100353.91;;;13.44
27986;BMP280;15453;53.692;10.168;2022-09-30T01:07:30;100347.03;;;13.46
27986;BMP280;15453;53.692;10.168;2022-09-30T01:09:56;100340.44;;;13.47
27986;BMP280;15453;53.692;10.168;2022-09-30T01:12:23;100340.44;;;13.47
27986;BMP280;15453;53.692;10.168;2022-09-30T01:14:51;100342.91;;;13.49
27986;BMP280;15453;53.692;10.168;2022-09-30T01:17:46;100342.91;;;13.49
27986;BMP280;15453;53.692;10.168;2022-09-30T01:20:38;100334.09;;;13.47
27986;BMP280;15453;53.692;10.168;2022-09-30T01:32:05;100348.41;;;13.49
27986;BMP280;15453;53.692;10.168;2022-09-30T01:34:51;100347.56;;;13.48
27986;BMP280;15453;53.692;10.168;2022-09-30T01:37:37;100341.53;;;13.46
27986;BMP280;15453;53.692;10.168;2022-09-30T01:40:52;100341.53;;;13.46
27986;BMP280;15453;53.692;10.168;2022-09-30T01:43:04;100342.34;;;13.42
27986;BMP280;15453;53.692;10.168;2022-09-30T01:45:41;100354.47;;;13.41
27986;BMP280;15453;53.692;10.168;2022-09-30T01:48:20;100354.47;;;13.41
27986;BMP280;15453;53.692;10.168;2022-09-30T01:50:52;100350.06;;;13.35
27986;BMP280;15453;53.692;10.168;2022-09-30T01:53:26;100350.06;;;13.35
27986;BMP280;15453;53.692;10.168;2022-09-30T01:58:43;100353.09;;;13.28
27986;BMP280;15453;53.692;10.168;2022-09-30T02:01:25;100340.44;;;13.27
27986;BMP280;15453;53.692;10.168;2022-09-30T02:03:58;100357.47;;;13.24
27986;BMP280;15453;53.692;10.168;2022-09-30T02:06:26;100357.47;;;13.24
27986;BMP280;15453;53.692;10.168;2022-09-30T02:09:15;100364.63;;;13.20
27986;BMP280;15453;53.692;10.168;2022-09-30T02:11:44;100359.69;;;13.22
27986;BMP280;15453;53.692;10.168;2022-09-30T02:14:33;100358.88;;;13.17
27986;BMP280;15453;53.692;10.168;2022-09-30T02:17:04;100361.88;;;13.15
27986;BMP280;15453;53.692;10.168;2022-09-30T02:19:37;100361.88;;;13.15
27986;BMP280;15453;53.692;10.168;2022-09-30T02:22:19;100363.81;;;13.10
27986;BMP280;15453;53.692;10.168;2022-09-30T02:24:49;100383.91;;;13.10
27986;BMP280;15453;53.692;10.168;2022-09-30T02:27:20;100383.91;;;13.10
27986;BMP280;15453;53.692;10.168;2022-09-30T02:29:52;100381.41;;;13.09
27986;BMP280;15453;53.692;10.168;2022-09-30T02:32:26;100391.31;;;13.10
27986;BMP280;15453;53.692;10.168;2022-09-30T02:35:04;100383.31;;;13.08
27986;BMP280;15453;53.692;10.168;2022-09-30T02:37:38;100383.31;;;13.08
27986;BMP280;15453;53.692;10.168;2022-09-30T02:40:15;100384.44;;;13.07
27986;BMP280;15453;53.692;10.168;2022-09-30T02:42:43;100384.44;;;13.07
27986;BMP280;15453;53.692;10.168;2022-09-30T02:45:13;100390.50;;;13.09
27986;BMP280;15453;53.692;10.168;2022-09-30T02:48:01;100408.38;;;13.12
27986;BMP280;15453;53.692;10.168;2022-09-30T02:53:17;100397.63;;;13.10
27986;BMP280;15453;53.692;10.168;2022-09-30T02:55:51;100396.00;;;13.09
27986;BMP280;15453;53.692;10.168;2022-09-30T02:58:21;100401.22;;;13.16
27986;BMP280;15453;53.692;10.168;2022-09-30T03:00:50;100401.22;;;13.16
27986;BMP280;15453;53.692;10.168;2022-09-30T03:05:44;100395.19;;;13.19
27986;BMP280;15453;53.692;10.168;2022-09-30T03:08:09;100396.53;;;13.16
27986;BMP280;15453;53.692;10.168;2022-09-30T03:10:35;100387.75;;;13.19
27986;BMP280;15453;53.692;10.168;2022-09-30T03:16:07;100394.63;;;13.17
27986;BMP280;15453;53.692;10.168;2022-09-30T03:21:33;100396.81;;;13.20
27986;BMP280;15453;53.692;10.168;2022-09-30T03:24:23;100396.81;;;13.20
27986;BMP280;15453;53.692;10.168;2022-09-30T03:27:11;100408.09;;;13.18
27986;BMP280;15453;53.692;10.168;2022-09-30T03:30:01;100402.59;;;13.18
27986;BMP280;15453;53.692;10.168;2022-09-30T03:37:39;100417.72;;;13.21
27986;BMP280;15453;53.692;10.168;2022-09-30T03:40:29;100414.13;;;13.20
27986;BMP280;15453;53.692;10.168;2022-09-30T03:43:04;100414.13;;;13.20
27986;BMP280;15453;53.692;10.168;2022-09-30T03:45:46;100416.34;;;13.18
27986;BMP280;15453;53.692;10.168;2022-09-30T03:48:15;100414.69;;;13.17
27986;BMP280;15453;53.692;10.168;2022-09-30T03:50:41;100423.47;;;13.19
27986;BMP280;15453;53.692;10.168;2022-09-30T03:53:10;100423.47;;;13.19
27986;BMP280;15453;53.692;10.168;2022-09-30T03:56:02;100412.50;;;13.14
27986;BMP280;15453;53.692;10.168;2022-09-30T03:58:28;100418.53;;;13.16
27986;BMP280;15453;53.692;10.168;2022-09-30T04:00:53;100424.84;;;13.17
27986;BMP280;15453;53.692;10.168;2022-09-30T04:03:21;100424.84;;;13.17
27986;BMP280;15453;53.692;10.168;2022-09-30T04:05:47;100431.75;;;13.14
27986;BMP280;15453;53.692;10.168;2022-09-30T04:08:13;100431.75;;;13.14
27986;BMP280;15453;53.692;10.168;2022-09-30T04:10:42;100424.88;;;13.12
27986;BMP280;15453;53.692;10.168;2022-09-30T04:13:11;100426.78;;;13.11
27986;BMP280;15453;53.692;10.168;2022-09-30T04:15:36;100420.47;;;13.11
27986;BMP280;15453;53.692;10.168;2022-09-30T04:18:03;100421.53;;;13.10
27986;BMP280;15453;53.692;10.168;2022-09-30T04:20:29;100436.13;;;13.10
27986;BMP280;15453;53.692;10.168;2022-09-30T04:22:59;100457.59;;;13.13
27986;BMP280;15453;53.692;10.168;2022-09-30T04:25:24;100457.59;;;13.13
27986;BMP280;15453;53.692;10.168;2022-09-30T04:27:50;100447.41;;;13.14
27986;BMP280;15453;53.692;10.168;2022-09-30T04:30:15;100466.38;;;13.15
27986;BMP280;15453;53.692;10.168;2022-09-30T04:32:41;100466.38;;;13.15
27986;BMP280;15453;53.692;10.168;2022-09-30T04:35:12;100469.97;;;13.16
27986;BMP280;15453;53.692;10.168;2022-09-30T04:37:44;100477.38;;;13.15
27986;BMP280;15453;53.692;10.168;2022-09-30T04:40:10;100477.38;;;13.15
27986;BMP280;15453;53.692;10.168;2022-09-30T04:42:37;100465.00;;;13.13
27986;BMP280;15453;53.692;10.168;2022-09-30T04:45:03;100469.38;;;13.14
27986;BMP280;15453;53.692;10.168;2022-09-30T04:47:28;100469.44;;;13.19
27986;BMP280;15453;53.692;10.168;2022-09-30T04:49:54;100469.44;;;13.19
27986;BMP280;15453;53.692;10.168;2022-09-30T04:52:20;100461.72;;;13.16
27986;BMP280;15453;53.692;10.168;2022-09-30T04:54:45;100472.72;;;13.21
27986;BMP280;15453;53.692;10.168;2022-09-30T04:57:10;100484.56;;;13.21
27986;BMP280;15453;53.692;10.168;2022-09-30T04:59:36;100488.09;;;13.22
27986;BMP280;15453;53.692;10.168;2022-09-30T05:02:01;100494.44;;;13.22
27986;BMP280;15453;53.692;10.168;2022-09-30T05:04:26;100494.44;;;13.22
27986;BMP280;15453;53.692;10.168;2022-09-30T05:06:51;100487.84;;;13.23
27986;BMP280;15453;53.692;10.168;2022-09-30T05:09:17;100498.56;;;13.25
27986;BMP280;15453;53.692;10.168;2022-09-30T05:11:42;100501.31;;;13.25
27986;BMP280;15453;53.692;10.168;2022-09-30T05:14:08;100501.31;;;13.25
27986;BMP280;15453;53.692;10.168;2022-09-30T05:16:33;100495.25;;;13.23
27986;BMP280;15453;53.692;10.168;2022-09-30T05:18:58;100512.06;;;13.26
27986;BMP280;15453;53.692;10.168;2022-09-30T05:21:24;100506.56;;;13.26
27986;BMP280;15453;53.692;10.168;2022-09-30T05:23:49;100506.56;;;13.26
27986;BMP280;15453;53.692;10.168;2022-09-30T05:26:14;100506.56;;;13.26
27986;BMP280;15453;53.692;10.168;2022-09-30T05:28:40;100506.56;;;13.26
27986;BMP280;15453;53.692;10.168;2022-09-30T05:31:05;100509.84;;;13.28
27986;BMP280;15453;53.692;10.168;2022-09-30T05:33:31;100509.84;;;13.28
27986;BMP280;15453;53.692;10.168;2022-09-30T05:36:01;100510.09;;;13.27
27986;BMP280;15453;53.692;10.168;2022-09-30T05:38:28;100513.69;;;13.27
27986;BMP280;15453;53.692;10.168;2022-09-30T05:40:53;100514.81;;;13.26
27986;BMP280;15453;53.692;10.168;2022-09-30T05:43:19;100509.31;;;13.26
27986;BMP280;15453;53.692;10.168;2022-09-30T05:45:52;100509.31;;;13.26
27986;BMP280;15453;53.692;10.168;2022-09-30T05:48:17;100526.91;;;13.25
27986;BMP280;15453;53.692;10.168;2022-09-30T05:50:42;100526.91;;;13.25
27986;BMP280;15453;53.692;10.168;2022-09-30T05:53:08;100527.97;;;13.24
27986;BMP280;15453;53.692;10.168;2022-09-30T05:55:33;100521.94;;;13.22
27986;BMP280;15453;53.692;10.168;2022-09-30T05:57:58;100524.44;;;13.24
27986;BMP280;15453;53.692;10.168;2022-09-30T06:00:23;100531.84;;;13.23
27986;BMP280;15453;53.692;10.168;2022-09-30T06:02:52;100532.94;;;13.22
27986;BMP280;15453;53.692;10.168;2022-09-30T06:05:17;100532.94;;;13.22
27986;BMP280;15453;53.692;10.168;2022-09-30T06:07:42;100524.41;;;13.19
27986;BMP280;15453;53.692;10.168;2022-09-30T06:10:08;100523.59;;;13.18
27986;BMP280;15453;53.692;10.168;2022-09-30T06:12:36;100526.34;;;13.18
27986;BMP280;15453;53.692;10.168;2022-09-30T06:15:03;100535.69;;;13.17
27986;BMP280;15453;53.692;10.168;2022-09-30T06:17:28;100540.63;;;13.20
27986;BMP280;15453;53.692;10.168;2022-09-30T06:19:53;100538.97;;;13.19
27986;BMP280;15453;53.692;10.168;2022-09-30T06:22:18;100539.81;;;13.20
27986;BMP280;15453;53.692;10.168;2022-09-30T06:24:44;100543.66;;;13.19
27986;BMP280;15453;53.692;10.168;2022-09-30T06:27:10;100537.59;;;13.17
27986;BMP280;15453;53.692;10.168;2022-09-30T06:29:36;100537.59;;;13.17
27986;BMP280;15453;53.692;10.168;2022-09-30T06:32:02;100542.56;;;13.15
27986;BMP280;15453;53.692;10.168;2022-09-30T06:34:27;100549.69;;;13.16
27986;BMP280;15453;53.692;10.168;2022-09-30T06:36:52;100547.50;;;13.18
27986;BMP280;15453;53.692;10.168;2022-09-30T06:39:18;100547.50;;;13.18
27986;BMP280;15453;53.692;10.168;2022-09-30T06:41:43;100548.06;;;13.15
27986;BMP280;15453;53.692;10.168;2022-09-30T06:44:09;100537.88;;;13.20
27986;BMP280;15453;53.692;10.168;2022-09-30T06:46:35;100548.34;;;13.23
27986;BMP280;15453;53.692;10.168;2022-09-30T06:49:01;100544.47;;;13.24
27986;BMP280;15453;53.692;10.168;2022-09-30T06:51:29;100544.47;;;13.24
27986;BMP280;15453;53.692;10.168;2022-09-30T06:53:58;100549.97;;;13.24
27986;BMP280;15453;53.692;10.168;2022-09-30T06:56:23;100550.81;;;13.20
27986;BMP280;15453;53.692;10.168;2022-09-30T06:58:48;100559.66;;;13.37
27986;BMP280;15453;53.692;10.168;2022-09-30T07:01:14;100559.66;;;13.37
27986;BMP280;15453;53.692;10.168;2022-09-30T07:03:42;100543.97;;;13.37
27986;BMP280;15453;53.692;10.168;2022-09-30T07:06:09;100550.88;;;13.40
27986;BMP280;15453;53.692;10.168;2022-09-30T07:08:36;100560.50;;;13.42
27986;BMP280;15453;53.692;10.168;2022-09-30T07:11:11;100566.53;;;13.44
27986;BMP280;15453;53.692;10.168;2022-09-30T07:13:47;100564.34;;;13.46
27986;BMP280;15453;53.692;10.168;2022-09-30T07:16:15;100563.53;;;13.51
27986;BMP280;15453;53.692;10.168;2022-09-30T07:18:41;100559.41;;;13.53
27986;BMP280;15453;53.692;10.168;2022-09-30T07:21:07;100561.59;;;13.56
27986;BMP280;15453;53.692;10.168;2022-09-30T07:23:32;100563.56;;;13.66
27986;BMP280;15453;53.692;10.168;2022-09-30T07:26:00;100566.56;;;13.69
27986;BMP280;15453;53.692;10.168;2022-09-30T07:28:30;100559.41;;;13.73
27986;BMP280;15453;53.692;10.168;2022-09-30T07:30:59;100558.03;;;13.76
27986;BMP280;15453;53.692;10.168;2022-09-30T07:33:26;100558.03;;;13.76
27986;BMP280;15453;53.692;10.168;2022-09-30T07:35:57;100555.88;;;13.78
27986;BMP280;15453;53.692;10.168;2022-09-30T07:38:26;100557.78;;;13.82
27986;BMP280;15453;53.692;10.168;2022-09-30T07:43:23;100554.19;;;13.92
27986;BMP280;15453;53.692;10.168;2022-09-30T07:45:49;100562.19;;;14.03
27986;BMP280;15453;53.692;10.168;2022-09-30T07:48:16;100562.19;;;14.03
27986;BMP280;15453;53.692;10.168;2022-09-30T07:50:59;100574.28;;;14.12
27986;BMP280;15453;53.692;10.168;2022-09-30T07:53:25;100574.28;;;14.12
27986;BMP280;15453;53.692;10.168;2022-09-30T07:55:50;100570.97;;;14.20
27986;BMP280;15453;53.692;10.168;2022-09-30T07:58:15;100577.34;;;14.26
27986;BMP280;15453;53.692;10.168;2022-09-30T08:00:41;100577.63;;;14.29
27986;BMP280;15453;53.692;10.168;2022-09-30T08:03:07;100577.63;;;14.29
27986;BMP280;15453;53.692;10.168;2022-09-30T08:05:38;100571.00;;;14.30
27986;BMP280;15453;53.692;10.168;2022-09-30T08:08:03;100578.69;;;14.43
27986;BMP280;15453;53.692;10.168;2022-09-30T08:10:33;100578.69;;;14.43
27986;BMP280;15453;53.692;10.168;2022-09-30T08:12:58;100579.53;;;14.44
27986;BMP280;15453;53.692;10.168;2022-09-30T08:15:23;100584.75;;;14.55
27986;BMP280;15453;53.692;10.168;2022-09-30T08:17:48;100584.75;;;14.55
27986;BMP280;15453;53.692;10.168;2022-09-30T08:20:14;100585.81;;;14.64
27986;BMP280;15453;53.692;10.168;2022-09-30T08:22:39;100584.16;;;14.68
27986;BMP280;15453;53.692;10.168;2022-09-30T08:25:04;100586.09;;;14.73
27986;BMP280;15453;53.692;10.168;2022-09-30T08:27:30;100578.06;;;14.76
27986;BMP280;15453;53.692;10.168;2022-09-30T08:29:55;100577.19;;;14.81
27986;BMP280;15453;53.692;10.168;2022-09-30T08:32:20;100577.19;;;14.81
27986;BMP280;15453;53.692;10.168;2022-09-30T08:34:46;100579.94;;;14.91
27986;BMP280;15453;53.692;10.168;2022-09-30T08:37:11;100583.50;;;14.96
27986;BMP280;15453;53.692;10.168;2022-09-30T08:39:37;100583.50;;;14.96
27986;BMP280;15453;53.692;10.168;2022-09-30T08:45:28;100601.63;;;15.12
27986;BMP280;15453;53.692;10.168;2022-09-30T08:48:16;100597.75;;;15.18
27986;BMP280;15453;53.692;10.168;2022-09-30T08:50:56;100597.75;;;15.18
27986;BMP280;15453;53.692;10.168;2022-09-30T08:53:29;100601.28;;;15.29
27986;BMP280;15453;53.692;10.168;2022-09-30T08:55:55;100601.28;;;15.29
27986;BMP280;15453;53.692;10.168;2022-09-30T08:58:29;100597.97;;;15.32
27986;BMP280;15453;53.692;10.168;2022-09-30T09:01:04;100591.06;;;15.39
27986;BMP280;15453;53.692;10.168;2022-09-30T09:03:32;100604.78;;;15.54
27986;BMP280;15453;53.692;10.168;2022-09-30T09:06:10;100604.78;;;15.54
27986;BMP280;15453;53.692;10.168;2022-09-30T09:13:48;100592.25;;;15.67
27986;BMP280;15453;53.692;10.168;2022-09-30T09:16:33;100604.31;;;15.81
27986;BMP280;15453;53.692;10.168;2022-09-30T09:19:12;100604.31;;;15.81
27986;BMP280;15453;53.692;10.168;2022-09-30T09:24:17;100593.50;;;15.89
27986;BMP280;15453;53.692;10.168;2022-09-30T09:26:43;100595.09;;;15.95
27986;BMP280;15453;53.692;10.168;2022-09-30T09:29:42;100597.84;;;16.00
27986;BMP280;15453;53.692;10.168;2022-09-30T09:32:13;100597.78;;;16.05
27986;BMP280;15453;53.692;10.168;2022-09-30T09:34:39;100600.41;;;16.20
27986;BMP280;15453;53.692;10.168;2022-09-30T09:40:23;100602.34;;;16.20
27986;BMP280;15453;53.692;10.168;2022-09-30T09:43:19;100600.91;;;16.27
27986;BMP280;15453;53.692;10.168;2022-09-30T09:48:26;100594.16;;;16.43
27986;BMP280;15453;53.692;10.168;2022-09-30T09:51:00;100606.50;;;16.51
27986;BMP280;15453;53.692;10.168;2022-09-30T09:53:39;100599.56;;;16.53
27986;BMP280;15453;53.692;10.168;2022-09-30T09:56:14;100608.41;;;16.55
27986;BMP280;15453;53.692;10.168;2022-09-30T09:59:11;100605.06;;;16.58
27986;BMP280;15453;53.692;10.168;2022-09-30T10:01:45;100605.59;;;16.60
27986;BMP280;15453;53.692;10.168;2022-09-30T10:04:22;100612.69;;;16.66
27986;BMP280;15453;53.692;10.168;2022-09-30T10:06:53;100616.53;;;16.70
27986;BMP280;15453;53.692;10.168;2022-09-30T10:09:34;100619.28;;;16.75
27986;BMP280;15453;53.692;10.168;2022-09-30T10:14:35;100609.50;;;16.83
27986;BMP280;15453;53.692;10.168;2022-09-30T10:17:02;100609.72;;;16.86
27986;BMP280;15453;53.692;10.168;2022-09-30T10:19:29;100609.66;;;16.91
27986;BMP280;15453;53.692;10.168;2022-09-30T10:24:34;100619.78;;;17.01
27986;BMP280;15453;53.692;10.168;2022-09-30T10:26:59;100626.09;;;17.06
27986;BMP280;15453;53.692;10.168;2022-09-30T10:29:28;100615.78;;;17.12
27986;BMP280;15453;53.692;10.168;2022-09-30T10:31:55;100618.22;;;17.18
27986;BMP280;15453;53.692;10.168;2022-09-30T10:34:26;100621.09;;;17.32
27986;BMP280;15453;53.692;10.168;2022-09-30T10:36:53;100620.19;;;17.37
27986;BMP280;15453;53.692;10.168;2022-09-30T10:39:25;100620.19;;;17.37
27986;BMP280;15453;53.692;10.168;2022-09-30T10:42:01;100622.34;;;17.40
27986;BMP280;15453;53.692;10.168;2022-09-30T10:44:27;100624.44;;;17.53
27986;BMP280;15453;53.692;10.168;2022-09-30T10:46:58;100620.78;;;17.57
27986;BMP280;15453;53.692;10.168;2022-09-30T10:49:27;100620.78;;;17.57
27986;BMP280;15453;53.692;10.168;2022-09-30T10:51:55;100620.47;;;17.59
27986;BMP280;15453;53.692;10.168;2022-09-30T10:54:48;100620.41;;;17.64
27986;BMP280;15453;53.692;10.168;2022-09-30T10:57:19;100618.16;;;17.66
27986;BMP280;15453;53.692;10.168;2022-09-30T10:59:46;100616.13;;;17.71
27986;BMP280;15453;53.692;10.168;2022-09-30T11:02:17;100615.53;;;17.74
27986;BMP280;15453;53.692;10.168;2022-09-30T11:04:50;100619.38;;;17.78
27986;BMP280;15453;53.692;10.168;2022-09-30T11:07:30;100625.66;;;17.84
27986;BMP280;15453;53.692;10.168;2022-09-30T11:12:55;100619.44;;;17.92
27986;BMP280;15453;53.692;10.168;2022-09-30T11:15:42;100624.28;;;18.00
27986;BMP280;15453;53.692;10.168;2022-09-30T11:18:18;100619.78;;;18.04
27986;BMP280;15453;53.692;10.168;2022-09-30T11:20:53;100623.28;;;18.09
27986;BMP280;15453;53.692;10.168;2022-09-30T11:23:27;100613.25;;;18.13
27986;BMP280;15453;53.692;10.168;2022-09-30T11:31:41;100610.38;;;18.37
27986;BMP280;15453;53.692;10.168;2022-09-30T11:44:45;100601.91;;;18.47
27986;BMP280;15453;53.692;10.168;2022-09-30T11:47:23;100603.84;;;18.46
27986;BMP280;15453;53.692;10.168;2022-09-30T11:50:06;100603.84;;;18.46
27986;BMP280;15453;53.692;10.168;2022-09-30T11:53:01;100597.84;;;18.39
27986;BMP280;15453;53.692;10.168;2022-09-30T11:56:03;100596.03;;;18.35
27986;BMP280;15453;53.692;10.168;2022-09-30T11:58:36;100596.88;;;18.30
27986;BMP280;15453;53.692;10.168;2022-09-30T12:01:17;100599.16;;;18.28
27986;BMP280;15453;53.692;10.168;2022-09-30T12:03:52;100593.69;;;18.23
27986;BMP280;15453;53.692;10.168;2022-09-30T12:06:31;100588.22;;;18.18
27986;BMP280;15453;53.692;10.168;2022-09-30T12:09:27;100593.56;;;18.15
27986;BMP280;15453;53.692;10.168;2022-09-30T12:14:34;100591.16;;;18.08
27986;BMP280;15453;53.692;10.168;2022-09-30T12:17:03;100597.22;;;18.10
27986;BMP280;15453;53.692;10.168;2022-09-30T12:19:35;100597.75;;;18.12
27986;BMP280;15453;53.692;10.168;2022-09-30T12:22:11;100597.97;;;18.16
27986;BMP280;15453;53.692;10.168;2022-09-30T12:24:40;100596.78;;;18.22
27986;BMP280;15453;53.692;10.168;2022-09-30T12:27:45;100594.13;;;18.30
27986;BMP280;15453;53.692;10.168;2022-09-30T12:30:18;100593.75;;;18.37
27986;BMP280;15453;53.692;10.168;2022-09-30T12:33:07;100598.50;;;18.50
27986;BMP280;15453;53.692;10.168;2022-09-30T12:35:46;100603.06;;;18.59
27986;BMP280;15453;53.692;10.168;2022-09-30T12:41:25;100603.69;;;18.70
27986;BMP280;15453;53.692;10.168;2022-09-30T12:47:16;100598.47;;;18.82
27986;BMP280;15453;53.692;10.168;2022-09-30T12:49:44;100587.97;;;18.92
27986;BMP280;15453;53.692;10.168;2022-09-30T12:52:13;100593.84;;;19.04
27986;BMP280;15453;53.692;10.168;2022-09-30T12:54:43;100583.97;;;19.12
27986;BMP280;15453;53.692;10.168;2022-09-30T12:57:17;100587.16;;;19.19
27986;BMP280;15453;53.692;10.168;2022-09-30T12:59:54;100587.91;;;19.24
27986;BMP280;15453;53.692;10.168;2022-09-30T13:02:37;100584.31;;;19.24
27986;BMP280;15453;53.692;10.168;2022-09-30T13:10:32;100593.31;;;19.16
27986;BMP280;15453;53.692;10.168;2022-09-30T13:15:43;100586.44;;;19.13
27986;BMP280;15453;53.692;10.168;2022-09-30T13:23:42;100580.47;;;19.20
27986;BMP280;15453;53.692;10.168;2022-09-30T13:28:52;100572.66;;;19.22
27986;BMP280;15453;53.692;10.168;2022-09-30T13:31:20;100576.19;;;19.27
27986;BMP280;15453;53.692;10.168;2022-09-30T13:34:02;100575.06;;;19.28
27986;BMP280;15453;53.692;10.168;2022-09-30T13:36:39;100572.28;;;19.28
27986;BMP280;15453;53.692;10.168;2022-09-30T13:39:16;100577.00;;;19.28
27986;BMP280;15453;53.692;10.168;2022-09-30T13:41:42;100580.59;;;19.28
27986;BMP280;15453;53.692;10.168;2022-09-30T13:44:14;100584.53;;;19.27
27986;BMP280;15453;53.692;10.168;2022-09-30T13:46:50;100578.22;;;19.22
27986;BMP280;15453;53.692;10.168;2022-09-30T13:49:21;100578.00;;;19.18
27986;BMP280;15453;53.692;10.168;2022-09-30T13:51:49;100578.00;;;19.18
27986;BMP280;15453;53.692;10.168;2022-09-30T13:54:30;100569.78;;;19.13
27986;BMP280;15453;53.692;10.168;2022-09-30T13:56:58;100571.03;;;19.07
27986;BMP280;15453;53.692;10.168;2022-09-30T13:59:46;100569.06;;;19.08
27986;BMP280;15453;53.692;10.168;2022-09-30T14:02:26;100563.13;;;19.01
27986;BMP280;15453;53.692;10.168;2022-09-30T14:10:37;100560.47;;;18.96
27986;BMP280;15453;53.692;10.168;2022-09-30T14:18:54;100559.19;;;18.88
27986;BMP280;15453;53.692;10.168;2022-09-30T14:21:49;100555.63;;;18.88
27986;BMP280;15453;53.692;10.168;2022-09-30T14:24:21;100565.06;;;18.87
27986;BMP280;15453;53.692;10.168;2022-09-30T14:26:54;100555.94;;;18.86
27986;BMP280;15453;53.692;10.168;2022-09-30T14:34:53;100561.16;;;18.74
27986;BMP280;15453;53.692;10.168;2022-09-30T14:37:30;100557.16;;;18.80
27986;BMP280;15453;53.692;10.168;2022-09-30T14:39:56;100555.81;;;18.78
27986;BMP280;15453;53.692;10.168;2022-09-30T14:42:26;100548.03;;;18.80
27986;BMP280;15453;53.692;10.168;2022-09-30T14:44:55;100558.28;;;18.79
27986;BMP280;15453;53.692;10.168;2022-09-30T14:47:30;100563.34;;;18.77
27986;BMP280;15453;53.692;10.168;2022-09-30T14:49:56;100563.34;;;18.77
27986;BMP280;15453;53.692;10.168;2022-09-30T14:52:34;100552.22;;;18.77
27986;BMP280;15453;53.692;10.168;2022-09-30T14:55:00;100549.97;;;18.79
27986;BMP280;15453;53.692;10.168;2022-09-30T14:57:25;100542.16;;;18.81
27986;BMP280;15453;53.692;10.168;2022-09-30T14:59:51;100548.22;;;18.83
27986;BMP280;15453;53.692;10.168;2022-09-30T15:02:17;100536.28;;;18.83
27986;BMP280;15453;53.692;10.168;2022-09-30T15:04:51;100543.50;;;18.84
27986;BMP280;15453;53.692;10.168;2022-09-30T15:07:17;100542.97;;;18.82
27986;BMP280;15453;53.692;10.168;2022-09-30T15:09:44;100533.84;;;18.81
27986;BMP280;15453;53.692;10.168;2022-09-30T15:12:12;100547.72;;;18.81
27986;BMP280;15453;53.692;10.168;2022-09-30T15:14:51;100546.34;;;18.79
27986;BMP280;15453;53.692;10.168;2022-09-30T15:17:35;100554.06;;;18.82
27986;BMP280;15453;53.692;10.168;2022-09-30T15:22:51;100544.41;;;18.79
27986;BMP280;15453;53.692;10.168;2022-09-30T15:25:18;100540.59;;;18.75
27986;BMP280;15453;53.692;10.168;2022-09-30T15:27:45;100550.25;;;18.78
27986;BMP280;15453;53.692;10.168;2022-09-30T15:32:39;100548.09;;;18.75
27986;BMP280;15453;53.692;10.168;2022-09-30T15:35:13;100558.38;;;18.74
27986;BMP280;15453;53.692;10.168;2022-09-30T15:37:39;100558.38;;;18.74
27986;BMP280;15453;53.692;10.168;2022-09-30T15:40:22;100559.81;;;18.72
27986;BMP280;15453;53.692;10.168;2022-09-30T15:43:08;100555.38;;;18.71
27986;BMP280;15453;53.692;10.168;2022-09-30T15:45:38;100555.38;;;18.71
27986;BMP280;15453;53.692;10.168;2022-09-30T15:50:49;100554.06;;;18.68
27986;BMP280;15453;53.692;10.168;2022-09-30T15:55:57;100544.41;;;18.66
27986;BMP280;15453;53.692;10.168;2022-09-30T16:00:52;100540.59;;;18.62
27986;BMP280;15453;53.692;10.168;2022-09-30T16:03:27;100542.03;;;18.59
27986;BMP280;15453;53.692;10.168;2022-09-30T16:06:05;100549.00;;;18.57
27986;BMP280;15453;53.692;10.168;2022-09-30T16:08:38;100549.63;;;18.54
27986;BMP280;15453;53.692;10.168;2022-09-30T16:11:05;100549.41;;;18.50
27986;BMP280;15453;53.692;10.168;2022-09-30T16:13:31;100549.41;;;18.50
27986;BMP280;15453;53.692;10.168;2022-09-30T16:15:59;100552.09;;;18.42